Latest Weather Observations for Dennes Point

IDT60901

Issued at 7:41 am EST Monday 20 August 2018 (issued every 10 minutes, with the page automatically refreshed every 10 minutes)

About weather observations | Map of Hobart area stations | Latest observations for Hobart area | Other Formats
Station Details ID: 094255 Name: DENNES POINT Lat: -43.06 Lon: 147.36 Height: 5.67 m
Data from the previous 72 hours. | See also: Recent months at Dennes Point
Date/Time
EST
Temp
°C
App
Temp
°C
Dew
Point
°C
Rel
Hum
%
Delta-T
°C
Wind Press
QNH
hPa
Press
MSL
hPa
Rain since
9am
mm
Dir  Spd
km/h
Gust
km/h
Spd
kts
Gust
kts
20/07:30am 4.3 2.3 0.1 74 1.6 CALM 0 0 0 0 1016.6 1016.6 2.2
20/07:00am 4.7 1.6 0.3 73 1.7 N 6 7 3 4 1016.8 1016.8 2.2
20/06:30am 4.7 0.6 0.1 72 1.7 N 11 13 6 7 1017.0 1017.0 2.2
20/06:00am 4.5 2.1 -0.1 72 1.7 NNW 2 6 1 3 1017.4 1017.4 2.2
20/05:30am 5.2 2.4 -0.6 66 2.2 NNW 4 11 2 6 1017.7 1017.7 2.2
20/05:00am 5.7 1.6 -0.4 65 2.3 NNW 11 15 6 8 1018.0 1018.0 2.2
20/04:30am 4.1 0.8 -0.9 70 1.8 W 6 9 3 5 1018.3 1018.3 2.2
20/04:00am 5.1 1.0 -0.1 69 2.0 WNW 11 17 6 9 1018.7 1018.7 2.2
20/03:30am 5.3 1.9 -0.5 66 2.2 NNW 7 11 4 6 1019.0 1019.0 2.2
20/03:00am 5.3 1.6 0.1 69 2.0 NW 9 15 5 8 1019.4 1019.4 2.2
20/02:30am 4.9 0.1 0.3 72 1.8 W 15 22 8 12 1019.9 1019.9 2.2
20/02:00am 4.6 -0.2 0.4 74 1.6 W 15 20 8 11 1020.2 1020.2 2.2
20/01:30am 5.0 -0.2 0.4 72 1.8 WNW 17 20 9 11 1020.3 1020.3 2.2
20/01:00am 5.4 -0.3 0.4 70 1.9 W 20 24 11 13 1020.5 1020.5 2.2
20/12:30am 5.4 -0.6 1.0 73 1.7 W 22 26 12 14 1020.8 1020.8 2.2
20/12:00am 5.4 -1.1 0.2 69 2.0 W 24 30 13 16 1020.8 1020.8 2.2
 
Date/Time
EST
Temp
°C
App
Temp
°C
Dew
Point
°C
Rel
Hum
%
Delta-T
°C
Wind Press
QNH
hPa
Press
MSL
hPa
Rain since
9am
mm
Dir  Spd
km/h
Gust
km/h
Spd
kts
Gust
kts
19/11:30pm 4.3 0.1 -1.1 68 2.0 SSW 11 13 6 7 1021.1 1021.1 2.2
19/11:00pm 4.9 0.0 -0.7 67 2.1 SW 15 24 8 13 1021.2 1021.2 2.2
19/10:30pm 5.8 -0.4 -0.3 65 2.3 WSW 22 28 12 15 1021.4 1021.4 2.2
19/10:00pm 5.8 0.0 0.0 66 2.2 WSW 20 26 11 14 1021.6 1021.6 2.2
19/09:30pm 5.5 0.9 1.6 76 1.6 SW 15 22 8 12 1021.5 1021.5 2.2
19/09:00pm 4.9 -0.4 1.7 80 1.3 SSW 19 28 10 15 1021.7 1021.7 2.0
19/08:30pm 6.1 0.5 -0.2 64 2.4 SW 19 33 10 18 1021.5 1021.5 1.8
19/08:17pm 6.5 -0.9 -0.7 60 2.7 WSW 28 46 15 25 1021.4 1021.4 1.8
19/08:00pm 6.6 -0.4 -0.4 61 2.7 WSW 26 35 14 19 1021.0 1021.0 1.8
19/07:30pm 6.8 0.3 0.0 62 2.6 WSW 24 35 13 19 1020.9 1020.9 1.8
19/07:00pm 6.7 -1.1 -0.7 59 2.8 SW 30 44 16 24 1020.5 1020.5 1.8
19/06:30pm 6.9 -0.7 -2.0 53 3.3 SW 28 39 15 21 1019.9 1019.9 1.8
19/06:00pm 7.0 -0.3 -0.2 60 2.8 SW 28 43 15 23 1019.5 1019.5 1.8
19/05:30pm 6.5 -0.7 0.8 67 2.2 SW 28 46 15 25 1019.2 1019.2 1.8
19/05:00pm 6.7 -0.6 0.2 63 2.5 SW 28 48 15 26 1018.8 1018.8 1.8
19/04:58pm 6.6 -0.7 0.1 63 2.5 SW 28 48 15 26 1018.7 1018.7 1.8
19/04:30pm 7.4 0.0 -0.8 56 3.1 SSW 28 41 15 22 1018.2 1018.2 1.8
19/04:13pm 7.9 0.7 0.4 59 3.0 SW 28 50 15 27 1017.9 1017.9 1.8
19/04:00pm 7.8 0.6 0.8 61 2.8 SW 28 41 15 22 1017.9 1017.9 1.8
19/03:33pm 7.8 0.5 0.1 58 3.0 SW 28 52 15 28 1017.6 1017.6 1.8
19/03:30pm 8.0 0.9 1.4 63 2.7 SW 28 44 15 24 1017.6 1017.6 1.8
19/03:02pm 8.1 0.3 1.7 64 2.6 SW 32 50 17 27 1017.1 1017.1 1.8
19/03:00pm 7.8 0.3 1.4 64 2.6 SW 30 43 16 23 1017.2 1017.2 1.8
19/02:30pm 7.8 0.4 1.6 65 2.5 SW 30 46 16 25 1017.0 1017.0 1.8
19/02:03pm 8.2 0.9 0.2 57 3.2 SSW 28 50 15 27 1016.6 1016.6 1.8
19/02:00pm 8.6 1.3 0.3 56 3.3 SSW 28 54 15 29 1016.6 1016.6 1.8
19/01:50pm 8.8 1.2 0.3 55 3.4 SW 30 48 16 26 1016.6 1016.6 1.8
19/01:30pm 8.7 2.8 1.4 60 3.0 SW 22 39 12 21 1016.3 1016.3 1.8
19/01:00pm 8.1 0.1 0.1 57 3.2 SSW 32 52 17 28 1016.2 1016.2 1.8
19/12:30pm 8.3 0.0 -0.4 54 3.4 SW 33 54 18 29 1015.7 1015.7 1.8
19/12:01pm 8.1 0.8 0.3 58 3.1 SW 28 48 15 26 1015.6 1015.6 1.8
19/12:00pm 7.9 1.1 0.6 60 2.9 SSW 26 46 14 25 1015.7 1015.7 1.8
19/11:30am 6.3 -3.2 1.8 73 1.8 SSW 41 61 22 33 1015.8 1015.8 1.8
19/11:15am 7.7 -0.2 2.2 68 2.3 SSW 33 54 18 29 1015.4 1015.4 1.8
19/11:00am 6.4 -0.5 2.5 76 1.6 SSW 28 46 15 25 1015.3 1015.3 1.8
19/10:34am 7.1 -0.1 3.0 75 1.7 SW 30 52 16 28 1014.7 1014.7 1.6
19/10:30am 7.2 -0.4 2.9 74 1.8 SW 32 44 17 24 1014.6 1014.6 1.6
19/10:00am 7.0 2.1 4.0 81 1.3 SSW 19 37 10 20 1014.1 1014.1 1.6
19/09:30am 6.4 0.1 3.7 83 1.1 SW 26 50 14 27 1013.4 1013.4 0.4
19/09:09am 6.9 -0.1 2.2 72 1.9 SSW 28 48 15 26 1013.1 1013.1 0.0
19/09:00am 7.5 0.9 2.0 68 2.3 SSW 26 43 14 23 1013.0 1013.0 4.4
19/08:32am 7.0 0.0 1.7 69 2.1 SSW 28 46 15 25 1012.2 1012.2 4.4
19/08:30am 6.9 -0.5 1.6 69 2.1 SSW 30 46 16 25 1012.1 1012.1 4.4
19/08:00am 7.2 -0.2 2.1 70 2.1 SSW 30 54 16 29 1011.4 1011.4 4.4
19/07:32am 7.5 0.2 2.4 70 2.1 SSW 30 59 16 32 1010.6 1010.6 4.4
19/07:30am 7.6 1.0 2.3 69 2.2 SSW 26 41 14 22 1010.6 1010.6 4.4
19/07:04am 7.6 0.4 2.9 72 2.0 SSW 30 48 16 26 1009.7 1009.7 4.4
19/07:00am 7.6 1.2 3.1 73 1.9 SSW 26 39 14 21 1009.7 1009.7 4.4
19/06:32am 7.0 0.3 3.6 79 1.4 SSW 28 46 15 25 1008.7 1008.7 4.4
19/06:30am 7.0 0.7 3.8 80 1.4 SSW 26 43 14 23 1008.6 1008.6 4.4
19/06:00am 6.9 2.0 4.0 82 1.2 SSW 19 32 10 17 1007.7 1007.7 4.2
19/05:30am 6.7 1.9 4.5 86 1.0 SSW 19 30 10 16 1007.0 1007.0 3.6
19/05:00am 7.1 2.4 3.2 76 1.6 SSW 17 32 9 17 1006.1 1006.1 2.0
19/04:30am 6.4 0.2 4.4 87 0.9 SW 26 35 14 19 1005.4 1005.4 2.0
19/04:00am 6.9 0.2 3.7 80 1.4 WSW 28 35 15 19 1004.5 1004.5 1.2
19/03:30am 6.5 1.6 4.0 84 1.1 SW 19 24 10 13 1003.9 1003.9 0.8
19/03:00am 7.1 2.0 3.0 75 1.7 SW 19 30 10 16 1003.4 1003.4 0.2
19/02:30am 6.6 2.2 2.7 76 1.6 SSW 15 19 8 10 1003.2 1003.2 0.2
19/02:00am 6.5 2.1 2.8 77 1.5 SW 15 28 8 15 1003.1 1003.1 0.2
19/01:30am 6.3 2.3 2.8 78 1.4 SW 13 20 7 11 1002.7 1002.7 0.2
19/01:00am 6.4 1.6 2.5 76 1.6 SW 17 24 9 13 1002.5 1002.5 0.2
19/12:30am 6.0 2.0 2.8 80 1.3 W 13 17 7 9 1002.5 1002.5 0.0
19/12:00am 6.2 3.0 3.0 80 1.3 W 9 11 5 6 1002.2 1002.2 0.0
 
Date/Time
EST
Temp
°C
App
Temp
°C
Dew
Point
°C
Rel
Hum
%
Delta-T
°C
Wind Press
QNH
hPa
Press
MSL
hPa
Rain since
9am
mm
Dir  Spd
km/h
Gust
km/h
Spd
kts
Gust
kts
18/11:30pm 5.8 3.2 3.0 82 1.2 SSW 6 9 3 5 1001.7 1001.8 0.0
18/11:00pm 6.3 3.6 2.6 77 1.5 SSW 6 7 3 4 1001.6 1001.7 0.0
18/10:30pm 6.4 3.2 3.0 79 1.4 WSW 9 13 5 7 1001.1 1001.2 0.0
18/10:00pm 6.4 2.0 2.7 77 1.5 SW 15 19 8 10 1001.0 1001.1 0.0
18/09:30pm 6.3 2.2 2.0 74 1.7 SSW 13 17 7 9 1000.8 1000.9 0.0
18/09:00pm 7.0 1.8 2.3 72 1.9 W 19 22 10 12 1000.5 1000.6 0.0
18/08:30pm 7.1 2.3 2.4 72 1.9 WSW 17 24 9 13 1000.2 1000.3 0.0
18/08:00pm 7.2 1.8 2.5 72 2.0 WNW 20 24 11 13 999.8 999.9 0.0
18/07:30pm 7.1 2.2 2.2 71 2.0 W 17 20 9 11 999.7 999.8 0.0
18/07:00pm 7.2 2.4 2.5 72 2.0 W 17 20 9 11 999.4 999.5 0.0
18/06:30pm 7.2 2.0 2.3 71 2.0 W 19 22 10 12 999.1 999.2 0.0
18/06:00pm 7.2 3.1 2.3 71 2.0 WNW 13 17 7 9 998.8 998.9 0.0
18/05:30pm 7.3 2.2 3.2 75 1.7 W 19 26 10 14 998.4 998.5 0.0
18/05:00pm 8.7 0.9 3.1 68 2.4 WSW 33 43 18 23 997.9 998.0 0.0
18/04:30pm 10.0 3.7 1.4 55 3.6 W 24 32 13 17 997.4 997.5 0.0
18/04:00pm 10.6 3.6 1.7 54 3.8 WNW 28 33 15 18 997.1 997.2 0.0
18/03:30pm 11.7 5.4 1.4 49 4.3 W 24 32 13 17 996.9 997.0 0.0
18/03:00pm 12.0 7.2 2.5 52 4.2 W 17 28 9 15 996.7 996.8 0.0
18/02:30pm 11.4 6.5 2.2 53 3.9 WSW 17 22 9 12 996.8 996.9 0.0
18/02:00pm 11.0 6.2 2.8 57 3.6 W 17 20 9 11 997.0 997.1 0.0
18/01:30pm 11.7 7.8 3.2 56 3.7 WNW 13 22 7 12 996.9 997.0 0.0
18/01:00pm 11.1 7.4 2.4 55 3.8 WNW 11 19 6 10 996.8 996.9 0.0
18/12:30pm 11.4 7.7 2.2 53 3.9 NNW 11 19 6 10 997.4 997.5 0.0
18/12:00pm 10.9 6.8 2.0 54 3.8 W 13 20 7 11 997.8 997.9 0.0
18/11:30am 11.0 7.8 2.8 57 3.5 NNE 9 17 5 9 998.1 998.2 0.0
18/11:00am 10.3 7.2 3.6 63 3.0 NE 9 15 5 8 998.4 998.5 0.0
18/10:30am 10.6 8.2 1.9 55 3.7 N 4 6 2 3 998.5 998.6 0.0
18/10:00am 9.1 5.6 1.5 59 3.2 WNW 9 13 5 7 998.7 998.8 0.0
18/09:30am 9.1 6.3 3.3 67 2.5 NNW 7 15 4 8 998.7 998.8 0.0
18/09:00am 8.4 4.9 3.5 71 2.1 NNE 11 19 6 10 998.9 999.0 0.6
18/08:30am 8.6 4.9 2.6 66 2.5 NNW 11 15 6 8 999.0 999.1 0.6
18/08:00am 8.3 4.6 2.3 66 2.5 NW 11 20 6 11 998.6 998.7 0.6
18/07:30am 7.8 3.4 2.7 70 2.1 WNW 15 19 8 10 998.5 998.6 0.6
18/07:00am 8.1 3.3 2.6 68 2.3 NW 17 28 9 15 997.9 998.0 0.6
18/06:30am 8.0 4.3 2.5 68 2.3 NW 11 19 6 10 997.5 997.6 0.6
18/06:00am 7.9 3.9 3.0 71 2.1 WNW 13 20 7 11 996.9 997.0 0.6
18/05:30am 8.3 5.4 2.5 67 2.4 NW 7 20 4 11 997.0 997.1 0.6
18/05:00am 8.6 3.8 2.8 67 2.5 W 17 26 9 14 997.2 997.3 0.6
18/04:30am 8.5 4.7 3.9 73 2.0 WSW 13 20 7 11 997.1 997.2 0.6
18/04:00am 8.4 4.3 4.4 76 1.8 WSW 15 24 8 13 996.5 996.6 0.6
18/03:30am 9.0 4.0 4.6 74 1.9 W 20 28 11 15 996.2 996.3 0.6
18/03:00am 9.0 4.4 5.6 79 1.6 WSW 19 28 10 15 996.0 996.1 0.6
18/02:30am 9.3 4.5 5.7 78 1.6 W 20 26 11 14 996.2 996.3 0.6
18/02:00am 8.9 5.7 7.0 88 0.9 SW 13 20 7 11 996.3 996.4 0.6
18/01:30am 9.7 6.5 7.0 83 1.3 W 13 19 7 10 996.2 996.3 0.0
18/01:00am 10.8 7.6 5.3 69 2.5 WNW 11 19 6 10 996.3 996.4 0.0
18/12:30am 11.1 7.3 5.8 70 2.5 WNW 15 22 8 12 996.6 996.7 0.0
18/12:00am 11.0 7.7 6.6 74 2.1 W 13 19 7 10 996.6 996.7 0.0
 
Date/Time
EST
Temp
°C
App
Temp
°C
Dew
Point
°C
Rel
Hum
%
Delta-T
°C
Wind Press
QNH
hPa
Press
MSL
hPa
Rain since
9am
mm
Dir  Spd
km/h
Gust
km/h
Spd
kts
Gust
kts
17/11:30pm 11.5 7.2 6.8 73 2.2 N 19 24 10 13 996.6 996.7 0.0
17/11:00pm 11.6 7.7 6.9 73 2.3 N 17 24 9 13 996.9 997.0 0.0
17/10:30pm 11.7 7.2 6.8 72 2.3 N 20 24 11 13 997.0 997.1 0.0
17/10:00pm 11.9 9.3 6.2 68 2.7 NNW 9 15 5 8 997.9 998.0 0.0
17/09:30pm 12.0 9.7 5.9 66 2.9 NW 7 11 4 6 998.3 998.4 0.0
17/09:00pm 11.9 9.0 6.6 70 2.5 NNW 11 19 6 10 998.6 998.7 0.0
17/08:30pm 12.0 8.4 6.7 70 2.5 N 15 24 8 13 998.6 998.7 0.0
17/08:00pm 12.5 9.7 6.8 68 2.7 NNW 11 17 6 9 998.9 999.0 0.0
17/07:30pm 12.6 10.0 6.0 64 3.1 NNW 9 13 5 7 999.0 999.1 0.0
17/07:00pm 13.3 9.6 4.7 56 4.0 NW 13 20 7 11 999.4 999.5 0.0
17/06:30pm 13.0 9.5 5.4 60 3.5 NNW 13 17 7 9 999.6 999.7 0.0
17/06:00pm 13.2 9.2 5.1 58 3.8 NNW 15 19 8 10 999.5 999.6 0.0
17/05:30pm 13.2 8.5 5.1 58 3.8 NNW 19 24 10 13 999.6 999.7 0.0
17/05:00pm 13.1 9.9 5.0 58 3.8 NNW 11 17 6 9 999.7 999.8 0.0
17/04:30pm 13.5 9.2 5.4 58 3.8 NNW 17 22 9 12 1000.0 1000.1 0.0
17/04:00pm 14.4 9.7 3.2 47 5.1 WNW 17 28 9 15 1000.1 1000.2 0.0
17/03:30pm 14.5 9.4 4.2 50 4.7 NW 20 28 11 15 1000.4 1000.5 0.0
17/03:00pm 15.3 10.2 4.1 47 5.2 NW 20 37 11 20 1000.6 1000.7 0.0
17/02:30pm 14.1 9.7 4.7 53 4.4 WNW 17 28 9 15 1001.1 1001.2 0.0
17/02:00pm 14.7 10.3 5.0 52 4.6 WNW 17 33 9 18 1001.3 1001.4 0.0
17/01:30pm 13.2 9.6 4.9 57 3.8 N 13 19 7 10 1001.8 1001.9 0.0
17/01:00pm 12.5 8.9 5.0 60 3.5 NNE 13 22 7 12 1002.5 1002.5 0.0
17/12:30pm 12.4 10.1 4.9 60 3.4 N 6 13 3 7 1003.0 1003.0 0.0
17/12:00pm 11.8 8.4 5.7 66 2.8 N 13 17 7 9 1003.6 1003.6 0.0
17/11:30am 11.2 8.0 5.1 66 2.8 N 11 15 6 8 1004.1 1004.1 0.0
17/11:00am 10.5 6.5 4.9 68 2.5 N 15 19 8 10 1004.5 1004.5 0.0
17/10:30am 9.8 6.9 4.8 71 2.2 NNE 9 13 5 7 1004.8 1004.8 0.0
17/10:00am 9.7 5.6 4.1 68 2.5 N 15 20 8 11 1005.2 1005.2 0.0
17/09:30am 9.6 6.7 4.6 71 2.2 N 9 17 5 9 1005.4 1005.4 0.0
17/09:00am 9.5 5.6 3.3 65 2.7 WNW 13 19 7 10 1005.8 1005.8 0.0
17/08:30am 8.8 6.3 3.8 71 2.2 NW 6 11 3 6 1005.8 1005.8 0.0
17/08:00am 8.9 5.2 4.7 75 1.9 N 13 17 7 9 1005.9 1005.9 0.0

Latest Capital City Observations: Canberra | Sydney | Melbourne | Brisbane | Adelaide | Perth | Hobart | Darwin

Other Formats:

Comma delimited format used in spreadsheet applications
http://www.bom.gov.au/fwo/IDT60901/IDT60901.94988.axf

JavaScript Object Notation format (JSON) in row-major order
http://www.bom.gov.au/fwo/IDT60901/IDT60901.94988.json